createdAt,value
2018-09-29T00:00:52.524Z,4.60
2018-09-29T00:03:19.948Z,4.60
2018-09-29T00:05:47.297Z,5.10
2018-09-29T00:08:14.699Z,4.70
2018-09-29T00:10:42.078Z,4.17
2018-09-29T00:13:09.474Z,5.00
2018-09-29T00:15:36.917Z,5.30
2018-09-29T00:18:04.332Z,4.13
2018-09-29T00:20:31.787Z,3.80
2018-09-29T00:22:59.232Z,4.07
2018-09-29T00:25:26.694Z,4.30
2018-09-29T00:27:54.171Z,3.73
2018-09-29T00:30:21.600Z,3.47
2018-09-29T00:32:49.069Z,4.63
2018-09-29T00:35:16.920Z,4.17
2018-09-29T00:37:44.288Z,3.60
2018-09-29T00:40:11.671Z,4.10
2018-09-29T00:42:39.095Z,5.13
2018-09-29T00:45:06.569Z,3.77
2018-09-29T00:47:34.014Z,4.00
2018-09-29T00:50:01.364Z,3.50
2018-09-29T00:52:28.762Z,3.40
2018-09-29T00:54:56.272Z,3.83
2018-09-29T00:57:23.718Z,3.20
2018-09-29T00:59:51.114Z,3.83
2018-09-29T01:02:18.530Z,3.57
2018-09-29T01:04:45.991Z,3.83
2018-09-29T01:07:13.502Z,3.53
2018-09-29T01:09:40.943Z,3.50
2018-09-29T01:12:15.027Z,3.03
2018-09-29T01:14:42.485Z,3.37
2018-09-29T01:17:09.922Z,3.50
2018-09-29T01:19:37.350Z,3.40
2018-09-29T01:22:04.870Z,3.13
2018-09-29T01:24:32.370Z,3.10
2018-09-29T01:26:59.796Z,3.20
2018-09-29T01:29:27.223Z,3.07
2018-09-29T01:31:54.704Z,3.03
2018-09-29T01:34:22.568Z,3.00
2018-09-29T01:36:50.008Z,3.00
2018-09-29T01:39:17.488Z,3.47
2018-09-29T01:41:44.940Z,2.90
2018-09-29T01:44:12.331Z,3.60
2018-09-29T01:46:39.791Z,2.70
2018-09-29T01:49:07.188Z,3.10
2018-09-29T01:51:34.807Z,3.17
2018-09-29T01:54:02.353Z,3.63
2018-09-29T01:56:30.031Z,3.37
2018-09-29T01:58:57.600Z,3.37
2018-09-29T02:01:25.005Z,3.20
2018-09-29T02:03:52.415Z,3.20
2018-09-29T02:06:19.876Z,3.27
2018-09-29T02:08:47.238Z,2.40
2018-09-29T02:11:14.680Z,2.93
2018-09-29T02:13:42.077Z,3.37
2018-09-29T02:16:09.546Z,2.40
2018-09-29T02:18:36.960Z,3.20
2018-09-29T02:21:04.390Z,3.20
2018-09-29T02:23:31.822Z,2.90
2018-09-29T02:25:59.240Z,3.20
2018-09-29T02:28:26.741Z,2.80
2018-09-29T02:30:54.182Z,2.93
2018-09-29T02:33:21.636Z,2.57
2018-09-29T02:35:48.990Z,2.70
2018-09-29T02:38:16.484Z,3.00
2018-09-29T02:40:43.925Z,3.43
2018-09-29T02:43:11.344Z,2.63
2018-09-29T02:45:38.760Z,2.50
2018-09-29T02:48:06.213Z,2.43
2018-09-29T02:50:33.545Z,3.23
2018-09-29T02:53:01.243Z,3.07
2018-09-29T02:55:28.637Z,3.27
2018-09-29T02:57:56.118Z,2.87
2018-09-29T03:00:23.626Z,3.07
2018-09-29T03:02:51.046Z,3.47
2018-09-29T03:05:18.507Z,3.63
2018-09-29T03:07:45.925Z,3.07
2018-09-29T03:10:13.387Z,3.20
2018-09-29T03:12:40.829Z,3.13
2018-09-29T03:15:08.269Z,2.93
2018-09-29T03:17:35.758Z,2.87
2018-09-29T03:20:03.261Z,3.53
2018-09-29T03:22:30.667Z,2.70
2018-09-29T03:24:58.084Z,2.80
2018-09-29T03:27:25.442Z,2.17
2018-09-29T03:29:52.856Z,2.83
2018-09-29T03:32:20.380Z,2.37
2018-09-29T03:34:47.760Z,3.63
2018-09-29T03:37:15.182Z,2.70
2018-09-29T03:39:42.707Z,2.53
2018-09-29T03:42:10.111Z,2.93
2018-09-29T03:44:37.487Z,2.80
2018-09-29T03:47:05.428Z,2.73
2018-09-29T03:49:32.876Z,2.57
2018-09-29T03:52:00.358Z,2.77
2018-09-29T03:54:27.849Z,2.40
2018-09-29T03:56:55.332Z,3.10
2018-09-29T03:59:22.800Z,2.03
2018-09-29T04:01:50.151Z,2.07
2018-09-29T04:04:17.541Z,2.80
2018-09-29T04:06:44.999Z,2.53
2018-09-29T04:09:12.426Z,2.17
2018-09-29T04:11:39.882Z,2.33
2018-09-29T04:14:07.333Z,2.00
2018-09-29T04:16:34.680Z,3.17
2018-09-29T04:19:02.056Z,2.40
2018-09-29T04:21:37.866Z,2.50
2018-09-29T04:24:05.412Z,2.30
2018-09-29T04:26:33.112Z,2.10
2018-09-29T04:29:00.673Z,2.17
2018-09-29T04:31:28.111Z,2.67
2018-09-29T04:33:55.549Z,2.60
2018-09-29T04:36:22.932Z,2.53
2018-09-29T04:38:50.406Z,2.40
2018-09-29T04:41:17.906Z,2.50
2018-09-29T04:43:45.476Z,3.00
2018-09-29T04:46:12.927Z,2.60
2018-09-29T04:48:40.404Z,2.70
2018-09-29T04:51:07.868Z,2.43
2018-09-29T04:53:35.385Z,2.90
2018-09-29T04:56:02.767Z,2.60
2018-09-29T04:58:30.206Z,2.57
2018-09-29T05:00:57.584Z,2.43
2018-09-29T05:03:25.097Z,2.97
2018-09-29T05:05:52.497Z,3.00
2018-09-29T05:08:19.821Z,2.20
2018-09-29T05:10:47.170Z,2.43
2018-09-29T05:13:14.624Z,2.00
2018-09-29T05:15:42.112Z,2.40
2018-09-29T05:18:09.561Z,3.23
2018-09-29T05:20:36.961Z,3.23
2018-09-29T05:23:04.531Z,3.40
2018-09-29T05:25:31.967Z,2.37
2018-09-29T05:27:59.372Z,2.20
2018-09-29T05:30:26.853Z,2.97
2018-09-29T05:32:54.222Z,2.90
2018-09-29T05:35:21.630Z,2.60
2018-09-29T05:37:48.996Z,2.80
2018-09-29T05:40:16.452Z,3.07
2018-09-29T05:42:43.903Z,2.43
2018-09-29T05:45:11.340Z,2.50
2018-09-29T05:47:38.816Z,2.10
2018-09-29T05:50:06.320Z,2.10
2018-09-29T05:52:33.745Z,2.63
2018-09-29T05:55:01.261Z,3.27
2018-09-29T05:57:28.833Z,2.20
2018-09-29T05:59:56.352Z,2.70
2018-09-29T06:02:23.796Z,2.70
2018-09-29T06:04:51.199Z,2.30
2018-09-29T06:07:18.652Z,1.90
2018-09-29T06:09:46.135Z,2.73
2018-09-29T06:12:13.596Z,2.30
2018-09-29T06:14:41.025Z,2.90
2018-09-29T06:17:08.449Z,2.73
2018-09-29T06:19:35.992Z,2.60
2018-09-29T06:22:03.442Z,2.17
2018-09-29T06:24:30.851Z,2.10
2018-09-29T06:26:58.327Z,2.50
2018-09-29T06:29:25.772Z,3.20
2018-09-29T06:31:53.230Z,2.63
2018-09-29T06:34:20.789Z,2.40
2018-09-29T06:36:48.273Z,2.47
2018-09-29T06:39:15.716Z,2.43
2018-09-29T06:41:43.108Z,2.93
2018-09-29T06:44:10.650Z,2.30
2018-09-29T06:46:38.207Z,3.07
2018-09-29T06:49:05.684Z,2.47
2018-09-29T06:51:33.192Z,2.97
2018-09-29T06:54:00.636Z,2.93
2018-09-29T06:56:28.082Z,2.30
2018-09-29T06:58:55.490Z,2.43
2018-09-29T07:01:22.954Z,2.93
2018-09-29T07:03:50.317Z,2.97
2018-09-29T07:06:17.803Z,3.30
2018-09-29T07:08:45.245Z,2.87
2018-09-29T07:11:12.726Z,3.73
2018-09-29T07:13:40.188Z,2.37
2018-09-29T07:16:08.175Z,2.97
2018-09-29T07:18:35.510Z,2.97
2018-09-29T07:21:02.954Z,3.07
2018-09-29T07:23:30.395Z,2.33
2018-09-29T07:25:57.748Z,2.70
2018-09-29T07:28:25.274Z,2.97
2018-09-29T07:30:52.744Z,3.30
2018-09-29T07:33:20.097Z,2.80
2018-09-29T07:35:47.487Z,2.70
2018-09-29T07:38:15.025Z,2.60
2018-09-29T07:40:42.520Z,3.13
2018-09-29T07:43:09.936Z,2.67
2018-09-29T07:45:37.344Z,2.37
2018-09-29T07:48:04.760Z,2.37
2018-09-29T07:50:32.224Z,2.20
2018-09-29T07:52:59.668Z,3.37
2018-09-29T07:55:27.072Z,2.33
2018-09-29T07:57:54.520Z,3.43
2018-09-29T08:00:21.968Z,3.00
2018-09-29T08:02:49.416Z,1.90
2018-09-29T08:05:16.912Z,2.27
2018-09-29T08:07:44.294Z,2.83
2018-09-29T08:10:11.696Z,2.40
2018-09-29T08:12:39.117Z,2.80
2018-09-29T08:15:06.622Z,2.30
2018-09-29T08:17:34.147Z,2.63
2018-09-29T08:20:01.569Z,3.50
2018-09-29T08:22:28.917Z,2.80
2018-09-29T08:24:56.346Z,1.70
2018-09-29T08:27:23.801Z,2.30
2018-09-29T08:29:51.240Z,2.47
2018-09-29T08:32:18.767Z,2.63
2018-09-29T08:34:46.200Z,2.37
2018-09-29T08:37:13.645Z,2.93
2018-09-29T08:39:41.076Z,2.60
2018-09-29T08:42:08.463Z,2.10
2018-09-29T08:44:35.859Z,2.93
2018-09-29T08:47:03.314Z,2.40
2018-09-29T08:51:50.181Z,3.10
2018-09-29T08:54:17.537Z,2.70
2018-09-29T08:56:44.874Z,2.40
2018-09-29T08:59:12.270Z,2.30
2018-09-29T09:01:39.675Z,2.33
2018-09-29T09:04:07.060Z,2.13
2018-09-29T09:06:34.549Z,3.17
2018-09-29T09:09:02.095Z,2.50
2018-09-29T09:11:29.472Z,2.30
2018-09-29T09:13:57.062Z,2.00
2018-09-29T09:16:24.386Z,2.90
2018-09-29T09:18:51.745Z,1.90
2018-09-29T09:21:19.166Z,1.90
2018-09-29T09:23:46.587Z,2.07
2018-09-29T09:26:13.944Z,2.40
2018-09-29T09:28:41.362Z,2.27
2018-09-29T09:31:08.758Z,2.70
2018-09-29T09:33:36.208Z,1.80
2018-09-29T09:36:03.645Z,2.03
2018-09-29T09:38:31.084Z,2.30
2018-09-29T09:40:58.486Z,2.00
2018-09-29T09:43:26.019Z,2.10
2018-09-29T09:45:53.441Z,2.63
2018-09-29T09:48:20.924Z,2.60
2018-09-29T09:50:48.313Z,2.03
2018-09-29T09:53:15.693Z,2.50
2018-09-29T09:55:43.290Z,2.57
2018-09-29T09:58:10.852Z,2.10
2018-09-29T10:00:43.962Z,2.20
2018-09-29T10:03:17.101Z,1.77
2018-09-29T10:05:44.490Z,2.30
2018-09-29T10:08:11.945Z,2.43
2018-09-29T10:10:39.403Z,1.80
2018-09-29T10:13:06.848Z,1.83
2018-09-29T10:15:34.342Z,1.97
2018-09-29T10:18:01.801Z,2.33
2018-09-29T10:20:29.169Z,1.57
2018-09-29T10:22:56.624Z,1.60
2018-09-29T10:25:23.974Z,1.80
2018-09-29T10:27:51.483Z,2.00
2018-09-29T10:30:18.824Z,1.90
2018-09-29T10:32:46.332Z,2.20
2018-09-29T10:35:13.790Z,1.93
2018-09-29T10:37:41.158Z,1.53
2018-09-29T10:40:08.625Z,2.00
2018-09-29T10:42:36.032Z,1.50
2018-09-29T10:45:03.542Z,1.70
2018-09-29T10:47:30.891Z,1.90
2018-09-29T10:49:58.736Z,2.70
2018-09-29T10:52:26.163Z,1.90
2018-09-29T10:54:53.567Z,2.43
2018-09-29T10:57:21.033Z,2.73
2018-09-29T10:59:48.744Z,1.60
2018-09-29T11:02:16.098Z,1.57
2018-09-29T11:04:43.476Z,1.83
2018-09-29T11:07:10.872Z,2.20
2018-09-29T11:09:38.377Z,2.93
2018-09-29T11:12:05.812Z,3.07
2018-09-29T11:14:33.240Z,1.90
2018-09-29T11:17:00.627Z,1.87
2018-09-29T11:19:28.036Z,1.77
2018-09-29T11:21:55.520Z,1.70
2018-09-29T11:24:22.966Z,2.23
2018-09-29T11:26:50.414Z,1.47
2018-09-29T11:29:17.843Z,1.60
2018-09-29T11:31:45.344Z,1.53
2018-09-29T11:34:12.831Z,1.80
2018-09-29T11:36:40.285Z,1.53
2018-09-29T11:39:08.762Z,2.27
2018-09-29T11:41:36.220Z,2.50
2018-09-29T11:44:03.621Z,1.50
2018-09-29T11:46:31.111Z,1.47
2018-09-29T11:48:58.564Z,2.20
2018-09-29T11:51:26.023Z,1.60
2018-09-29T11:53:53.437Z,1.47
2018-09-29T11:56:20.872Z,1.90
2018-09-29T11:58:48.300Z,1.67
2018-09-29T12:01:15.843Z,1.57
2018-09-29T12:03:43.232Z,1.50
2018-09-29T12:06:10.795Z,1.37
2018-09-29T12:08:38.200Z,1.73
2018-09-29T12:11:05.612Z,1.40
2018-09-29T12:13:32.958Z,1.47
2018-09-29T12:16:00.412Z,1.60
2018-09-29T12:18:27.741Z,1.73
2018-09-29T12:20:55.137Z,1.77
2018-09-29T12:23:22.653Z,1.70
2018-09-29T12:25:50.105Z,1.60
2018-09-29T12:28:17.537Z,1.37
2018-09-29T12:30:44.941Z,1.90
2018-09-29T12:33:12.406Z,2.13
2018-09-29T12:35:39.969Z,1.90
2018-09-29T12:38:07.422Z,2.03
2018-09-29T12:40:34.864Z,1.87
2018-09-29T12:43:02.253Z,1.60
2018-09-29T12:45:29.611Z,1.40
2018-09-29T12:47:56.940Z,2.97
2018-09-29T12:50:24.382Z,1.50
2018-09-29T12:52:51.850Z,1.90
2018-09-29T12:55:19.288Z,1.50
2018-09-29T12:57:46.794Z,1.50
2018-09-29T13:00:14.304Z,1.50
2018-09-29T13:02:41.749Z,1.33
2018-09-29T13:05:09.141Z,1.93
2018-09-29T13:07:36.570Z,1.27
2018-09-29T13:10:04.105Z,1.30
2018-09-29T13:12:31.590Z,1.63
2018-09-29T13:14:59.027Z,1.77
2018-09-29T13:17:26.477Z,1.90
2018-09-29T13:19:53.873Z,1.60
2018-09-29T13:22:21.302Z,1.30
2018-09-29T13:24:48.754Z,1.30
2018-09-29T13:27:16.176Z,1.50
2018-09-29T13:29:43.673Z,1.60
2018-09-29T13:32:11.010Z,2.20
2018-09-29T13:34:38.527Z,1.90
2018-09-29T13:37:06.017Z,1.90
2018-09-29T13:39:33.449Z,1.33
2018-09-29T13:42:00.833Z,1.47
2018-09-29T13:44:28.284Z,1.23
2018-09-29T13:46:55.804Z,1.27
2018-09-29T13:49:23.288Z,1.77
2018-09-29T13:51:50.648Z,1.87
2018-09-29T13:54:18.013Z,1.30
2018-09-29T13:56:45.393Z,1.80
2018-09-29T13:59:12.769Z,1.47
2018-09-29T14:01:40.199Z,1.33
2018-09-29T14:04:07.548Z,1.70
2018-09-29T14:06:35.057Z,2.20
2018-09-29T14:09:02.634Z,1.50
2018-09-29T14:11:30.088Z,1.80
2018-09-29T14:13:57.519Z,0.73
2018-09-29T14:16:24.981Z,1.27
2018-09-29T14:18:52.448Z,1.80
2018-09-29T14:21:19.784Z,1.70
2018-09-29T14:23:47.172Z,1.00
2018-09-29T14:26:14.566Z,1.63
2018-09-29T14:28:42.050Z,1.60
2018-09-29T14:31:09.473Z,1.27
2018-09-29T14:33:36.914Z,1.00
2018-09-29T14:36:04.389Z,1.10
2018-09-29T14:38:31.884Z,1.17
2018-09-29T14:40:59.342Z,1.03
2018-09-29T14:43:26.735Z,1.80
2018-09-29T14:45:54.172Z,1.50
2018-09-29T14:48:21.580Z,1.40
2018-09-29T14:50:48.988Z,1.57
2018-09-29T14:53:16.497Z,1.50
2018-09-29T14:55:43.895Z,1.80
2018-09-29T14:58:11.316Z,1.70
2018-09-29T15:00:38.800Z,1.10
2018-09-29T15:03:06.255Z,1.70
2018-09-29T15:05:33.692Z,1.30
2018-09-29T15:08:01.166Z,1.70
2018-09-29T15:10:28.608Z,1.60
2018-09-29T15:12:56.377Z,2.53
2018-09-29T15:15:23.925Z,1.60
2018-09-29T15:17:51.373Z,1.70
2018-09-29T15:20:18.811Z,2.30
2018-09-29T15:22:46.242Z,1.93
2018-09-29T15:25:13.626Z,1.60
2018-09-29T15:27:41.108Z,1.80
2018-09-29T15:30:08.524Z,1.70
2018-09-29T15:32:35.872Z,2.00
2018-09-29T15:35:03.439Z,2.57
2018-09-29T15:37:30.852Z,1.53
2018-09-29T15:39:58.648Z,2.17
2018-09-29T15:42:26.064Z,1.87
2018-09-29T15:44:53.598Z,1.67
2018-09-29T15:47:20.982Z,1.37
2018-09-29T15:49:48.425Z,2.13
2018-09-29T15:52:15.789Z,1.97
2018-09-29T15:54:43.282Z,1.60
2018-09-29T15:57:10.766Z,2.10
2018-09-29T15:59:38.300Z,2.27
2018-09-29T16:02:05.838Z,1.80
2018-09-29T16:04:33.252Z,2.00
2018-09-29T16:07:00.642Z,1.70
2018-09-29T16:09:28.119Z,2.20
2018-09-29T16:11:55.661Z,1.50
2018-09-29T16:14:23.040Z,2.53
2018-09-29T16:16:50.449Z,1.77
2018-09-29T16:19:17.914Z,2.20
2018-09-29T16:21:45.465Z,2.00
2018-09-29T16:24:12.836Z,2.00
2018-09-29T16:26:40.199Z,2.03
2018-09-29T16:29:07.690Z,1.93
2018-09-29T16:31:35.187Z,1.70
2018-09-29T16:34:02.589Z,2.20
2018-09-29T16:36:30.066Z,1.80
2018-09-29T16:38:57.496Z,1.73
2018-09-29T16:41:24.951Z,1.60
2018-09-29T16:43:52.416Z,1.77
2018-09-29T16:46:19.856Z,1.57
2018-09-29T16:48:47.330Z,2.10
2018-09-29T16:51:14.794Z,1.90
2018-09-29T16:53:42.308Z,2.00
2018-09-29T16:56:09.700Z,1.90
2018-09-29T16:58:37.127Z,2.10
2018-09-29T17:01:04.576Z,2.10
2018-09-29T17:03:32.387Z,1.93
2018-09-29T17:05:59.784Z,1.80
2018-09-29T17:08:27.221Z,1.93
2018-09-29T17:10:54.718Z,2.10
2018-09-29T17:13:22.200Z,2.30
2018-09-29T17:15:49.581Z,2.03
2018-09-29T17:18:16.969Z,2.17
2018-09-29T17:20:44.414Z,2.20
2018-09-29T17:23:11.752Z,2.50
2018-09-29T17:25:45.829Z,2.27
2018-09-29T17:28:13.234Z,2.07
2018-09-29T17:30:40.687Z,2.10
2018-09-29T17:33:08.206Z,1.97
2018-09-29T17:35:38.215Z,1.90
2018-09-29T17:38:05.933Z,1.60
2018-09-29T17:40:33.414Z,1.40
2018-09-29T17:43:00.804Z,1.90
2018-09-29T17:45:28.330Z,1.60
2018-09-29T17:47:55.752Z,2.17
2018-09-29T17:50:23.214Z,2.33
2018-09-29T17:52:50.761Z,2.10
2018-09-29T17:55:18.092Z,2.00
2018-09-29T17:57:45.616Z,1.97
2018-09-29T18:00:13.024Z,2.70
2018-09-29T18:02:40.558Z,2.70
2018-09-29T18:05:07.998Z,1.90
2018-09-29T18:07:35.444Z,2.13
2018-09-29T18:10:02.883Z,1.70
2018-09-29T18:12:30.725Z,2.20
2018-09-29T18:14:58.091Z,2.23
2018-09-29T18:17:25.550Z,1.70
2018-09-29T18:19:53.023Z,2.00
2018-09-29T18:22:20.405Z,2.23
2018-09-29T18:24:47.852Z,2.33
2018-09-29T18:27:15.330Z,2.40
2018-09-29T18:29:42.694Z,2.23
2018-09-29T18:32:10.135Z,2.33
2018-09-29T18:34:37.526Z,3.00
2018-09-29T18:37:04.940Z,2.23
2018-09-29T18:39:32.378Z,2.80
2018-09-29T18:41:59.873Z,2.40
2018-09-29T18:44:27.342Z,2.17
2018-09-29T18:46:54.695Z,2.77
2018-09-29T18:49:22.136Z,2.50
2018-09-29T18:51:49.614Z,2.90
2018-09-29T18:54:16.990Z,3.17
2018-09-29T18:56:44.488Z,2.63
2018-09-29T18:59:11.935Z,3.17
2018-09-29T19:01:39.407Z,2.90
2018-09-29T19:04:06.841Z,3.10
2018-09-29T19:06:34.338Z,2.53
2018-09-29T19:09:01.968Z,2.70
2018-09-29T19:11:29.399Z,2.60
2018-09-29T19:13:56.813Z,2.80
2018-09-29T19:16:24.218Z,3.13
2018-09-29T19:18:51.623Z,2.33
2018-09-29T19:21:18.990Z,2.87
2018-09-29T19:23:46.389Z,2.47
2018-09-29T19:26:13.822Z,3.17
2018-09-29T19:28:41.327Z,2.43
2018-09-29T19:31:08.811Z,2.93
2018-09-29T19:33:36.593Z,2.93
2018-09-29T19:36:04.356Z,3.27
2018-09-29T19:38:31.804Z,2.60
2018-09-29T19:40:59.226Z,2.70
2018-09-29T19:43:26.671Z,3.17
2018-09-29T19:45:54.170Z,2.97
2018-09-29T19:48:21.564Z,2.53
2018-09-29T19:50:49.022Z,2.23
2018-09-29T19:53:16.488Z,3.50
2018-09-29T19:55:43.935Z,2.60
2018-09-29T19:58:11.419Z,2.73
2018-09-29T20:00:38.819Z,3.13
2018-09-29T20:03:06.272Z,3.50
2018-09-29T20:05:33.840Z,3.43
2018-09-29T20:08:01.300Z,3.57
2018-09-29T20:10:28.736Z,3.00
2018-09-29T20:12:56.094Z,3.50
2018-09-29T20:15:23.581Z,3.23
2018-09-29T20:17:51.014Z,2.90
2018-09-29T20:20:18.444Z,2.87
2018-09-29T20:22:45.996Z,3.43
2018-09-29T20:25:13.523Z,3.70
2018-09-29T20:27:41.001Z,3.70
2018-09-29T20:30:08.448Z,3.47
2018-09-29T20:32:35.948Z,3.27
2018-09-29T20:35:03.420Z,3.30
2018-09-29T20:37:30.850Z,2.87
2018-09-29T20:39:58.308Z,3.23
2018-09-29T20:42:25.668Z,2.70
2018-09-29T20:44:53.137Z,3.30
2018-09-29T20:47:20.506Z,2.97
2018-09-29T20:49:47.994Z,2.57
2018-09-29T20:52:15.903Z,2.73
2018-09-29T20:54:43.323Z,3.20
2018-09-29T20:57:10.816Z,3.27
2018-09-29T20:59:38.255Z,2.67
2018-09-29T21:02:05.891Z,3.30
2018-09-29T21:04:33.365Z,3.63
2018-09-29T21:07:00.743Z,3.60
2018-09-29T21:09:28.245Z,3.13
2018-09-29T21:11:55.736Z,4.37
2018-09-29T21:14:23.240Z,6.90
2018-09-29T21:16:50.813Z,7.30
2018-09-29T21:19:18.334Z,7.30
2018-09-29T21:21:45.804Z,5.37
2018-09-29T21:24:13.221Z,4.77
2018-09-29T21:26:40.634Z,3.70
2018-09-29T21:29:08.174Z,3.20
2018-09-29T21:31:35.619Z,3.30
2018-09-29T21:34:03.048Z,3.17
2018-09-29T21:36:30.553Z,3.07
2018-09-29T21:38:57.860Z,4.00
2018-09-29T21:41:25.305Z,4.50
2018-09-29T21:43:52.724Z,4.60
2018-09-29T21:46:20.238Z,3.13
2018-09-29T21:48:47.770Z,5.10
2018-09-29T21:51:18.493Z,5.37
2018-09-29T21:53:45.913Z,3.97
2018-09-29T21:56:13.444Z,4.50
2018-09-29T21:58:40.916Z,3.80
2018-09-29T22:01:13.934Z,4.40
2018-09-29T22:03:41.418Z,4.10
2018-09-29T22:06:08.912Z,5.50
2018-09-29T22:08:36.419Z,4.10
2018-09-29T22:11:03.914Z,4.30
2018-09-29T22:13:31.310Z,4.30
2018-09-29T22:15:58.753Z,4.97
2018-09-29T22:18:26.170Z,5.10
2018-09-29T22:20:53.563Z,4.70
2018-09-29T22:23:20.971Z,5.40
2018-09-29T22:25:48.371Z,4.80
2018-09-29T22:28:15.764Z,5.30
2018-09-29T22:30:43.186Z,4.80
2018-09-29T22:33:10.641Z,4.73
2018-09-29T22:35:38.250Z,5.20
2018-09-29T22:38:09.153Z,4.90
2018-09-29T22:40:36.600Z,4.20
2018-09-29T22:43:04.066Z,5.03
2018-09-29T22:45:31.526Z,4.30
2018-09-29T22:47:58.939Z,4.27
2018-09-29T22:50:26.408Z,4.33
2018-09-29T22:52:53.760Z,4.30
2018-09-29T22:55:21.116Z,5.07
2018-09-29T22:57:48.489Z,5.50
2018-09-29T23:00:15.911Z,4.20
2018-09-29T23:02:43.338Z,4.27
2018-09-29T23:05:10.762Z,4.47
2018-09-29T23:07:38.233Z,4.70
2018-09-29T23:10:05.823Z,5.43
2018-09-29T23:12:33.285Z,4.50
2018-09-29T23:15:00.704Z,5.23
2018-09-29T23:17:28.085Z,3.90
2018-09-29T23:19:55.534Z,4.67
2018-09-29T23:22:22.906Z,4.80
2018-09-29T23:24:50.366Z,4.20
2018-09-29T23:27:17.782Z,3.77
2018-09-29T23:29:45.204Z,4.13
2018-09-29T23:32:12.606Z,4.10
2018-09-29T23:34:39.978Z,4.37
2018-09-29T23:37:07.448Z,3.20
2018-09-29T23:39:34.867Z,3.70
2018-09-29T23:42:02.354Z,4.43
2018-09-29T23:44:29.816Z,4.00
2018-09-29T23:46:57.310Z,3.77
2018-09-29T23:49:24.784Z,4.03
2018-09-29T23:51:52.208Z,4.00
2018-09-29T23:54:19.673Z,4.07
2018-09-29T23:56:47.112Z,4.10
2018-09-29T23:59:14.552Z,3.77
